createdAt,value
2019-02-06T00:00:45.007Z,37.40
2019-02-06T00:03:33.649Z,37.03
2019-02-06T00:06:22.979Z,38.53
2019-02-06T00:09:14.214Z,36.93
2019-02-06T00:12:03.474Z,37.13
2019-02-06T00:14:52.386Z,36.67
2019-02-06T00:17:41.165Z,35.90
2019-02-06T00:20:29.672Z,34.40
2019-02-06T00:23:19.619Z,36.37
2019-02-06T00:26:08.643Z,36.37
2019-02-06T00:28:57.317Z,35.17
2019-02-06T00:31:46.186Z,35.40
2019-02-06T00:34:35.430Z,36.50
2019-02-06T00:37:24.334Z,36.33
2019-02-06T00:40:13.587Z,37.47
2019-02-06T00:43:02.551Z,35.73
2019-02-06T00:45:50.790Z,36.07
2019-02-06T00:48:41.710Z,36.50
2019-02-06T00:51:30.698Z,34.80
2019-02-06T00:54:21.057Z,36.10
2019-02-06T00:57:10.529Z,36.43
2019-02-06T00:59:59.837Z,34.83
2019-02-06T01:02:48.685Z,35.70
2019-02-06T01:05:38.928Z,35.37
2019-02-06T01:08:27.554Z,33.90
2019-02-06T01:11:15.704Z,34.13
2019-02-06T01:14:05.435Z,36.17
2019-02-06T01:16:54.097Z,35.07
2019-02-06T01:19:43.077Z,35.23
2019-02-06T01:22:32.038Z,33.40
2019-02-06T01:25:20.336Z,34.07
2019-02-06T01:28:09.077Z,35.37
2019-02-06T01:31:12.999Z,34.77
2019-02-06T01:34:01.345Z,36.43
2019-02-06T01:36:49.639Z,36.20
2019-02-06T01:39:37.987Z,36.30
2019-02-06T01:42:27.189Z,33.83
2019-02-06T01:45:17.707Z,32.57
2019-02-06T01:48:06.355Z,33.77
2019-02-06T01:50:55.446Z,35.43
2019-02-06T01:53:44.164Z,35.67
2019-02-06T01:56:33.528Z,33.87
2019-02-06T01:59:22.497Z,33.80
2019-02-06T02:02:10.830Z,34.10
2019-02-06T02:05:00.693Z,32.67
2019-02-06T02:07:50.956Z,34.43
2019-02-06T02:10:40.300Z,32.93
2019-02-06T02:13:28.453Z,32.97
2019-02-06T02:16:17.338Z,33.37
2019-02-06T02:19:06.148Z,32.47
2019-02-06T02:21:54.613Z,31.23
2019-02-06T02:24:43.928Z,30.73
2019-02-06T02:27:32.905Z,32.13
2019-02-06T02:30:28.517Z,31.00
2019-02-06T02:33:17.845Z,30.33
2019-02-06T02:36:16.048Z,30.07
2019-02-06T02:38:57.422Z,30.70
2019-02-06T02:41:46.532Z,31.37
2019-02-06T02:44:34.959Z,30.70
2019-02-06T02:47:23.651Z,30.00
2019-02-06T02:50:12.288Z,29.20
2019-02-06T02:53:00.701Z,27.87
2019-02-06T02:55:49.605Z,28.30
2019-02-06T02:58:38.449Z,27.60
2019-02-06T03:01:39.537Z,29.00
2019-02-06T03:04:31.129Z,30.97
2019-02-06T03:07:19.882Z,30.47
2019-02-06T03:10:09.594Z,31.73
2019-02-06T03:12:58.029Z,30.43
2019-02-06T03:15:47.667Z,30.03
2019-02-06T03:18:36.495Z,30.60
2019-02-06T03:21:26.440Z,30.10
2019-02-06T03:24:15.670Z,32.53
2019-02-06T03:27:04.778Z,32.50
2019-02-06T03:29:52.670Z,33.13
2019-02-06T03:32:41.637Z,31.73
2019-02-06T03:35:30.096Z,32.97
2019-02-06T03:38:18.867Z,31.43
2019-02-06T03:41:07.797Z,33.47
2019-02-06T03:43:56.628Z,33.90
2019-02-06T03:46:46.668Z,34.50
2019-02-06T03:49:35.959Z,32.07
2019-02-06T03:52:24.733Z,29.90
2019-02-06T03:55:14.213Z,26.07
2019-02-06T03:58:02.329Z,27.40
2019-02-06T04:00:51.305Z,29.03
2019-02-06T04:03:39.883Z,29.57
2019-02-06T04:06:28.606Z,29.50
2019-02-06T04:09:16.590Z,30.70
2019-02-06T04:12:06.626Z,30.00
2019-02-06T04:14:54.878Z,29.70
2019-02-06T04:17:43.823Z,30.27
2019-02-06T04:20:32.759Z,32.70
2019-02-06T04:23:21.775Z,27.83
2019-02-06T04:26:10.639Z,28.57
2019-02-06T04:28:59.628Z,28.47
2019-02-06T04:31:47.724Z,28.43
2019-02-06T04:34:53.656Z,27.73
2019-02-06T04:37:43.328Z,30.20
2019-02-06T04:40:33.016Z,29.97
2019-02-06T04:43:22.007Z,30.97
2019-02-06T04:46:10.875Z,29.93
2019-02-06T04:48:59.496Z,31.03
2019-02-06T04:51:48.435Z,30.20
2019-02-06T04:54:38.569Z,31.03
2019-02-06T04:57:27.210Z,28.90
2019-02-06T05:00:25.990Z,31.10
2019-02-06T05:03:15.107Z,28.13
2019-02-06T05:06:04.513Z,28.03
2019-02-06T05:08:54.546Z,33.27
2019-02-06T05:11:43.284Z,33.60
2019-02-06T05:14:32.165Z,30.30
2019-02-06T05:17:20.799Z,28.43
2019-02-06T05:20:31.284Z,28.93
2019-02-06T05:23:19.905Z,29.20
2019-02-06T05:26:08.185Z,29.33
2019-02-06T05:28:57.683Z,29.07
2019-02-06T05:31:51.930Z,28.80
2019-02-06T05:34:40.935Z,28.60
2019-02-06T05:37:32.304Z,29.57
2019-02-06T05:40:20.915Z,28.23
2019-02-06T05:43:10.838Z,29.23
2019-02-06T05:45:59.166Z,29.67
2019-02-06T05:48:50.646Z,30.00
2019-02-06T05:51:39.300Z,30.57
2019-02-06T05:54:28.511Z,29.70
2019-02-06T05:57:20.754Z,30.90
2019-02-06T06:00:13.070Z,30.23
2019-02-06T06:03:01.574Z,31.57
2019-02-06T06:05:50.326Z,30.03
2019-02-06T06:08:39.176Z,30.20
2019-02-06T06:11:27.946Z,29.80
2019-02-06T06:14:17.504Z,30.87
2019-02-06T06:17:06.707Z,31.07
2019-02-06T06:19:55.589Z,31.83
2019-02-06T06:22:45.502Z,30.93
2019-02-06T06:25:35.292Z,29.73
2019-02-06T06:28:26.007Z,30.10
2019-02-06T06:31:17.363Z,30.47
2019-02-06T06:34:05.372Z,30.70
2019-02-06T06:36:56.842Z,30.90
2019-02-06T06:39:46.643Z,31.33
2019-02-06T06:42:35.165Z,33.40
2019-02-06T06:45:24.193Z,33.00
2019-02-06T06:48:13.140Z,32.47
2019-02-06T06:51:02.826Z,30.23
2019-02-06T06:53:52.187Z,31.07
2019-02-06T06:56:41.166Z,31.70
2019-02-06T06:59:29.508Z,31.10
2019-02-06T07:02:18.535Z,31.80
2019-02-06T07:05:07.611Z,31.63
2019-02-06T07:08:09.050Z,32.07
2019-02-06T07:10:48.383Z,32.73
2019-02-06T07:13:37.902Z,34.43
2019-02-06T07:16:27.108Z,33.67
2019-02-06T07:19:15.754Z,34.03
2019-02-06T07:22:04.205Z,31.67
2019-02-06T07:24:53.110Z,33.23
2019-02-06T07:27:46.121Z,33.60
2019-02-06T07:30:36.831Z,33.83
2019-02-06T07:33:25.443Z,33.73
2019-02-06T07:36:14.751Z,32.60
2019-02-06T07:39:06.529Z,34.80
2019-02-06T07:41:55.410Z,33.67
2019-02-06T07:44:44.004Z,33.33
2019-02-06T07:47:33.121Z,31.93
2019-02-06T07:50:26.500Z,33.87
2019-02-06T07:53:16.395Z,33.70
2019-02-06T07:56:05.689Z,32.27
2019-02-06T07:58:53.851Z,32.87
2019-02-06T08:01:42.382Z,32.50
2019-02-06T08:04:31.017Z,33.57
2019-02-06T08:07:19.661Z,33.20
2019-02-06T08:10:11.814Z,33.47
2019-02-06T08:13:01.015Z,33.40
2019-02-06T08:15:50.947Z,33.50
2019-02-06T08:18:40.604Z,34.17
2019-02-06T08:21:29.731Z,34.40
2019-02-06T08:24:18.322Z,35.53
2019-02-06T08:27:07.187Z,33.07
2019-02-06T08:29:56.219Z,35.37
2019-02-06T08:32:44.131Z,32.47
2019-02-06T08:35:33.351Z,32.07
2019-02-06T08:38:22.125Z,31.27
2019-02-06T08:41:11.361Z,33.57
2019-02-06T08:44:01.880Z,32.73
2019-02-06T08:46:50.319Z,32.50
2019-02-06T08:49:40.049Z,34.67
2019-02-06T08:52:28.620Z,32.60
2019-02-06T08:55:19.977Z,33.40
2019-02-06T08:58:08.680Z,32.13
2019-02-06T09:00:57.014Z,33.00
2019-02-06T09:03:45.574Z,32.97
2019-02-06T09:06:34.548Z,32.67
2019-02-06T09:09:22.922Z,32.07
2019-02-06T09:12:12.333Z,30.90
2019-02-06T09:15:01.522Z,31.67
2019-02-06T09:17:49.689Z,31.30
2019-02-06T09:20:38.210Z,32.60
2019-02-06T09:23:28.240Z,31.97
2019-02-06T09:26:17.548Z,31.70
2019-02-06T09:29:06.819Z,33.00
2019-02-06T09:31:59.317Z,32.23
2019-02-06T09:34:47.277Z,32.53
2019-02-06T09:37:36.331Z,33.63
2019-02-06T09:40:26.790Z,32.50
2019-02-06T09:43:15.462Z,32.17
2019-02-06T09:46:04.212Z,32.70
2019-02-06T09:48:55.515Z,32.03
2019-02-06T09:51:46.902Z,32.17
2019-02-06T09:54:35.627Z,30.93
2019-02-06T09:57:24.489Z,30.57
2019-02-06T10:00:19.809Z,28.93
2019-02-06T10:03:10.730Z,27.43
2019-02-06T10:05:59.794Z,27.40
2019-02-06T10:08:48.061Z,26.23
2019-02-06T10:11:36.806Z,28.00
2019-02-06T10:14:25.628Z,29.97
2019-02-06T10:17:14.439Z,27.47
2019-02-06T10:20:03.632Z,27.33
2019-02-06T10:22:51.868Z,28.43
2019-02-06T10:25:40.124Z,26.70
2019-02-06T10:28:29.432Z,26.50
2019-02-06T10:31:18.939Z,28.27
2019-02-06T10:34:07.950Z,27.90
2019-02-06T10:36:56.525Z,28.30
2019-02-06T10:39:45.041Z,28.30
2019-02-06T10:42:34.064Z,28.57
2019-02-06T10:45:23.991Z,28.83
2019-02-06T10:48:13.920Z,28.43
2019-02-06T10:51:02.929Z,27.53
2019-02-06T10:53:52.318Z,27.37
2019-02-06T10:56:42.000Z,28.27
2019-02-06T10:59:30.541Z,30.00
2019-02-06T11:02:18.599Z,30.40
2019-02-06T11:05:07.348Z,29.37
2019-02-06T11:07:55.533Z,30.60
2019-02-06T11:10:43.962Z,29.30
2019-02-06T11:13:32.231Z,29.60
2019-02-06T11:16:20.490Z,30.40
2019-02-06T11:19:09.247Z,28.30
2019-02-06T11:21:58.165Z,29.07
2019-02-06T11:24:46.651Z,28.87
2019-02-06T11:27:36.167Z,29.70
2019-02-06T11:30:26.468Z,30.33
2019-02-06T11:33:15.482Z,29.43
2019-02-06T11:36:04.482Z,31.10
2019-02-06T11:38:54.662Z,31.00
2019-02-06T11:41:43.807Z,31.23
2019-02-06T11:44:32.702Z,31.10
2019-02-06T11:47:22.586Z,31.30
2019-02-06T11:50:14.861Z,30.73
2019-02-06T11:53:03.725Z,30.70
2019-02-06T11:55:53.938Z,30.17
2019-02-06T11:58:42.172Z,29.03
2019-02-06T12:01:34.931Z,31.40
2019-02-06T12:04:23.622Z,30.20
2019-02-06T12:07:11.989Z,29.57
2019-02-06T12:10:09.782Z,31.33
2019-02-06T12:12:56.142Z,30.87
2019-02-06T12:15:44.934Z,29.07
2019-02-06T12:18:35.729Z,31.60
2019-02-06T12:21:24.653Z,30.87
2019-02-06T12:24:13.175Z,29.23
2019-02-06T12:27:01.978Z,29.13
2019-02-06T12:29:50.504Z,28.60
2019-02-06T12:32:39.273Z,28.93
2019-02-06T12:35:27.840Z,27.43
2019-02-06T12:38:16.771Z,28.77
2019-02-06T12:41:06.119Z,30.40
2019-02-06T12:43:55.738Z,29.00
2019-02-06T12:46:43.958Z,29.67
2019-02-06T12:49:32.213Z,28.17
2019-02-06T12:52:20.456Z,30.33
2019-02-06T12:55:11.578Z,30.07
2019-02-06T12:58:00.628Z,30.70
2019-02-06T13:00:49.786Z,29.73
2019-02-06T13:03:38.955Z,33.20
2019-02-06T13:06:28.512Z,32.27
2019-02-06T13:09:16.813Z,32.63
2019-02-06T13:12:06.061Z,32.97
2019-02-06T13:14:55.276Z,32.20
2019-02-06T13:17:44.169Z,31.83
2019-02-06T13:20:33.575Z,32.40
2019-02-06T13:23:22.233Z,33.47
2019-02-06T13:26:10.621Z,33.37
2019-02-06T13:28:59.387Z,32.73
2019-02-06T13:31:48.307Z,32.97
2019-02-06T13:34:37.073Z,34.10
2019-02-06T13:37:26.192Z,31.63
2019-02-06T13:40:16.785Z,32.53
2019-02-06T13:43:05.899Z,32.43
2019-02-06T13:45:54.883Z,33.07
2019-02-06T13:48:43.847Z,32.93
2019-02-06T13:51:34.075Z,31.73
2019-02-06T13:54:22.932Z,31.23
2019-02-06T13:57:11.983Z,31.20
2019-02-06T14:00:01.228Z,30.70
2019-02-06T14:02:50.401Z,30.33
2019-02-06T14:05:39.487Z,32.00
2019-02-06T14:08:29.073Z,31.53
2019-02-06T14:11:18.446Z,31.43
2019-02-06T14:14:06.934Z,31.50
2019-02-06T14:16:56.152Z,32.27
2019-02-06T14:19:45.503Z,31.93
2019-02-06T14:22:33.828Z,31.93
2019-02-06T14:25:27.249Z,32.67
2019-02-06T14:28:50.023Z,35.63
2019-02-06T14:32:02.172Z,34.97
2019-02-06T14:35:24.877Z,35.07
2019-02-06T14:39:12.746Z,34.67
2019-02-06T14:42:44.956Z,33.70
2019-02-06T14:46:10.230Z,36.50
2019-02-06T14:49:13.540Z,35.70
2019-02-06T14:53:11.459Z,37.00
2019-02-06T14:56:23.688Z,37.70
2019-02-06T14:59:55.201Z,38.63
2019-02-06T15:03:08.516Z,39.10
2019-02-06T15:06:24.735Z,36.40
2019-02-06T15:09:47.731Z,36.83
2019-02-06T15:13:14.985Z,36.70
2019-02-06T15:16:26.648Z,36.20
2019-02-06T15:19:49.057Z,38.70
2019-02-06T15:23:05.254Z,38.23
2019-02-06T15:26:04.615Z,38.17
2019-02-06T15:29:30.633Z,39.13
2019-02-06T15:33:10.120Z,38.77
2019-02-06T15:36:20.628Z,38.77
2019-02-06T15:40:01.018Z,37.80
2019-02-06T15:43:35.491Z,38.57
2019-02-06T15:46:59.032Z,39.00
2019-02-06T15:49:55.270Z,38.97
2019-02-06T15:53:11.111Z,38.80
2019-02-06T15:56:31.441Z,38.37
2019-02-06T15:59:45.587Z,40.00
2019-02-06T16:02:54.662Z,39.37
2019-02-06T16:06:20.313Z,39.70
2019-02-06T16:09:54.689Z,39.33
2019-02-06T16:13:08.535Z,38.73
2019-02-06T16:16:33.240Z,37.80
2019-02-06T16:19:52.447Z,36.83
2019-02-06T16:23:30.908Z,34.50
2019-02-06T16:27:14.342Z,37.13
2019-02-06T16:30:17.509Z,37.83
2019-02-06T16:33:37.942Z,37.37
2019-02-06T16:36:43.857Z,38.50
2019-02-06T16:40:00.515Z,36.47
2019-02-06T16:43:46.043Z,37.10
2019-02-06T16:47:07.299Z,36.50
2019-02-06T16:50:40.221Z,37.23
2019-02-06T16:57:34.083Z,39.03
2019-02-06T17:01:03.834Z,39.70
2019-02-06T17:04:21.453Z,40.87
2019-02-06T17:08:19.081Z,39.63
2019-02-06T17:11:46.197Z,39.07
2019-02-06T17:15:02.701Z,40.47
2019-02-06T17:19:09.520Z,40.37
2019-02-06T17:22:44.577Z,39.57
2019-02-06T17:26:25.084Z,40.27
2019-02-06T17:29:56.916Z,38.83
2019-02-06T17:33:04.860Z,40.70
2019-02-06T17:36:24.019Z,43.70
2019-02-06T17:39:24.160Z,39.57
2019-02-06T17:42:41.331Z,39.57
2019-02-06T17:45:51.944Z,40.03
2019-02-06T17:49:11.936Z,39.30
2019-02-06T17:52:33.591Z,39.77
2019-02-06T17:55:26.019Z,40.43
2019-02-06T17:58:14.348Z,45.50
2019-02-06T18:01:10.896Z,42.10
2019-02-06T18:04:18.811Z,38.97
2019-02-06T18:07:07.688Z,39.83
2019-02-06T18:09:57.207Z,39.67
2019-02-06T18:12:46.480Z,38.07
2019-02-06T18:15:35.163Z,39.17
2019-02-06T18:18:24.249Z,38.03
2019-02-06T18:21:12.816Z,37.27
2019-02-06T18:24:01.980Z,38.93
2019-02-06T18:26:52.894Z,38.67
2019-02-06T18:29:42.355Z,37.30
2019-02-06T18:32:31.014Z,39.30
2019-02-06T18:35:21.101Z,41.73
2019-02-06T18:38:10.633Z,44.30
2019-02-06T18:40:59.308Z,44.00
2019-02-06T18:43:48.540Z,41.30
2019-02-06T18:46:36.873Z,41.00
2019-02-06T18:49:25.684Z,46.10
2019-02-06T18:52:20.518Z,40.30
2019-02-06T18:55:05.839Z,37.37
2019-02-06T18:57:55.014Z,39.93
2019-02-06T19:00:44.113Z,38.77
2019-02-06T19:03:39.201Z,38.70
2019-02-06T19:06:29.034Z,37.97
2019-02-06T19:09:18.346Z,37.60
2019-02-06T19:12:07.319Z,37.77
2019-02-06T19:14:58.779Z,39.17
2019-02-06T19:17:46.557Z,38.00
2019-02-06T19:20:35.763Z,39.13
2019-02-06T19:23:24.499Z,38.73
2019-02-06T19:26:14.042Z,39.37
2019-02-06T19:29:03.109Z,37.43
2019-02-06T19:31:51.315Z,39.17
2019-02-06T19:34:40.533Z,38.03
2019-02-06T19:37:29.256Z,34.50
2019-02-06T19:40:18.138Z,36.27
2019-02-06T19:43:11.792Z,37.23
2019-02-06T19:46:00.801Z,39.00
2019-02-06T19:48:55.491Z,38.87
2019-02-06T19:51:43.837Z,36.43
2019-02-06T19:54:32.777Z,35.90
2019-02-06T19:57:21.237Z,38.27
2019-02-06T20:00:12.354Z,37.47
2019-02-06T20:03:20.206Z,36.40
2019-02-06T20:06:28.506Z,35.97
2019-02-06T20:09:18.397Z,36.00
2019-02-06T20:12:08.511Z,35.73
2019-02-06T20:14:57.331Z,35.93
2019-02-06T20:17:46.826Z,37.70
2019-02-06T20:20:35.891Z,39.20
2019-02-06T20:23:24.783Z,37.40
2019-02-06T20:26:13.102Z,36.67
2019-02-06T20:29:03.145Z,35.53
2019-02-06T20:31:52.246Z,36.70
2019-02-06T20:34:41.432Z,36.97
2019-02-06T20:37:33.718Z,35.63
2019-02-06T20:40:29.175Z,35.53
2019-02-06T20:43:22.127Z,36.13
2019-02-06T20:46:09.264Z,35.87
2019-02-06T20:48:57.418Z,38.07
2019-02-06T20:51:45.759Z,37.97
2019-02-06T20:54:35.396Z,42.77
2019-02-06T20:57:24.273Z,39.63
2019-02-06T21:00:19.451Z,40.40
2019-02-06T21:03:07.800Z,39.73
2019-02-06T21:05:58.883Z,37.57
2019-02-06T21:08:48.018Z,39.07
2019-02-06T21:11:36.446Z,37.80
2019-02-06T21:14:24.982Z,38.67
2019-02-06T21:17:14.172Z,37.67
2019-02-06T21:20:03.654Z,39.60
2019-02-06T21:22:52.907Z,39.80
2019-02-06T21:25:46.921Z,38.90
2019-02-06T21:28:36.273Z,39.17
2019-02-06T21:31:25.006Z,38.43
2019-02-06T21:34:14.292Z,38.30
2019-02-06T21:37:03.771Z,40.60
2019-02-06T21:43:06.712Z,39.33
2019-02-06T21:45:55.756Z,39.93
2019-02-06T21:48:44.729Z,39.67
2019-02-06T21:51:33.334Z,38.13
2019-02-06T21:54:22.932Z,37.30
2019-02-06T21:57:11.803Z,33.83
2019-02-06T22:00:00.482Z,33.67
2019-02-06T22:02:49.165Z,33.30
2019-02-06T22:05:38.127Z,34.47
2019-02-06T22:08:26.721Z,33.67
2019-02-06T22:11:15.020Z,33.33
2019-02-06T22:14:03.850Z,34.30
2019-02-06T22:16:52.502Z,33.60
2019-02-06T22:19:40.626Z,33.77
2019-02-06T22:22:30.877Z,35.60
2019-02-06T22:25:20.797Z,35.57
2019-02-06T22:28:10.474Z,35.30
2019-02-06T22:31:00.725Z,37.27
2019-02-06T22:33:51.028Z,34.73
2019-02-06T22:36:40.802Z,34.87
2019-02-06T22:39:30.320Z,37.57
2019-02-06T22:42:19.869Z,36.13
2019-02-06T22:45:30.731Z,35.27
2019-02-06T22:48:22.261Z,36.43
2019-02-06T22:51:12.212Z,36.27
2019-02-06T22:54:01.887Z,36.17
2019-02-06T22:56:51.667Z,35.50
2019-02-06T23:02:51.124Z,36.07
2019-02-06T23:05:40.917Z,38.33
2019-02-06T23:08:30.796Z,35.97
2019-02-06T23:11:23.112Z,37.67
2019-02-06T23:14:18.039Z,37.13
2019-02-06T23:17:05.620Z,34.27
2019-02-06T23:19:55.146Z,36.60
2019-02-06T23:22:45.309Z,37.93
2019-02-06T23:25:34.825Z,37.03
2019-02-06T23:28:25.097Z,37.50
2019-02-06T23:31:14.954Z,35.83
2019-02-06T23:34:05.421Z,37.00
2019-02-06T23:36:55.485Z,36.47
2019-02-06T23:39:45.628Z,36.47
2019-02-06T23:42:35.695Z,36.77
2019-02-06T23:45:25.224Z,36.87
2019-02-06T23:48:15.692Z,35.77
2019-02-06T23:51:45.088Z,34.93
2019-02-06T23:54:35.085Z,35.40
2019-02-06T23:57:24.911Z,35.17
